Havana, Florida
Current Conditions -  °F | °C
As of 3:35 PM on Friday 21 Nov 2014 (Local Time) from K2J9 Reporting Station
Clear Clear  
Wind Chill: 72°   Ceiling: Unl
Heat Index: 72°   Visibility: 10mi
Dew Point: 37°   Wind: 10mph
Humidity: 29%   Direction: 80°E
Pressure: 30.3"   Gusts: NA
Location:  30.62°N, 84.41°W
Report Text: K2J9 212035Z AUTO 08009KT 050V110 10SM CLR 22/03 A3030 RMK AO1 P0042
Loading
Personal Weather Stations






























Interactive Weather Map New forecast layout! Learn more

10-Day Weather Forecast

Advertisements
Track Severe Weather on mobile